Celebrity Silhouette — 9HA2583 — position and weather

sailwx.info

Track history (hours):
 
Tides and Currents Weather Stations Pressure Air Temp Water Temp Dewpoint Dewpoint Depression Visibility Wind Speed Wind Dir Waves Ship Positions

Celebrity Silhouette

Last reported at 2018-Sep-24 20:00 UTC. Time now 2018-Sep-24 21:18 UTC.
Position N 45°24' W 012°00'.

Length 319 m; draft 8.6 m.

Type: Passenger vessel. MMSI: 248939000.

Wind from 080 at 18 knots

Barometer 1035.0 mb
Air temperature 20.0 ° C
Dewpoint 20.0 ° C
Water temperature 19.5 ° C

Date/timePositionNaut miles runAvg speedWind from/ knotsBaromVisibWave heightAir tempDewpointWater temp
2018-Sep-24 20:00N 45°24' W 012°00'23621.4 080 / 181035.0 20.020.019.5
2018-Sep-24 09:00N 48°00' W 007°42'12621.0 090 / 181030.0 15.015.017.0
2018-Sep-24 03:00N 49°12' W 005°06'5919.5 010 / 151037.027.0
2018-Sep-23 23:58N 49°43' W 003°49'1022.7
2018-Sep-23 23:30N 49°49' W 003°36'1022.2
2018-Sep-23 23:03N 49°53' W 003°22'122.1
2018-Sep-23 23:00N 49°53' W 003°20'1122.2
2018-Sep-23 22:30N 49°57' W 003°04'1021.7
2018-Sep-23 22:03N 49°60' W 002°49'121.6
2018-Sep-23 22:00N 50°00' W 002°48'2727.1
2018-Sep-23 21:00N 50°06' W 002°06'522.4 360 / 271019.0 13.013.017.9
2018-Sep-23 20:45N 50°10' W 002°11'519.5
2018-Sep-23 20:30N 50°13' W 002°05'919.0
2018-Sep-23 20:04N 50°17' W 001°53'119.1
2018-Sep-23 20:00N 50°17' W 001°52'918.7
2018-Sep-23 19:30N 50°21' W 001°39'818.5
2018-Sep-23 19:03N 50°25' W 001°27'118.5
2018-Sep-23 19:00N 50°25' W 001°26'918.1
2018-Sep-23 18:30N 50°29' W 001°13'817.8
2018-Sep-23 18:03N 50°33' W 001°02'118.1
2018-Sep-23 18:00N 50°33' W 001°01'816.3
2018-Sep-23 17:30N 50°41' W 000°58'612.3
2018-Sep-23 17:04N 50°44' W 001°05'118.0
2018-Sep-23 17:00N 50°45' W 001°06'816.6
2018-Sep-23 16:30N 50°47' W 001°19'4 8.4
2018-Sep-23 16:04N 50°51' W 001°20'0 6.4
2018-Sep-23 16:01N 50°51' W 001°20'4 8.1
2018-Sep-23 15:31N 50°54' W 001°25'0 0.4
2018-Sep-23 15:01N 50°54' W 001°25'0 0.0
2018-Sep-23 14:55N 50°54' W 001°25'0 0.0
2018-Sep-23 14:25N 50°54' W 001°25'0 0.0
2018-Sep-23 13:28N 50°54' W 001°25'0 0.0
2018-Sep-23 13:01N 50°54' W 001°25'0 0.0
2018-Sep-23 12:58N 50°54' W 001°25'0 0.0
2018-Sep-23 12:29N 50°54' W 001°25'0 0.0
2018-Sep-23 12:03N 50°54' W 001°25'0 0.0
2018-Sep-23 12:00N 50°54' W 001°25'0 0.0
2018-Sep-23 11:30N 50°54' W 001°25'0 0.0
2018-Sep-23 11:03N 50°54' W 001°25'0 0.0
2018-Sep-23 11:00N 50°54' W 001°25'0 0.0
2018-Sep-23 10:30N 50°54' W 001°25'0 0.0
2018-Sep-23 10:03N 50°54' W 001°25'0 0.0
2018-Sep-23 09:54N 50°54' W 001°25'0 0.0
2018-Sep-23 09:30N 50°54' W 001°25'0 0.0
2018-Sep-23 09:03N 50°54' W 001°25'0 0.0
2018-Sep-23 09:00N 50°54' W 001°25'61654.0
2018-Sep-23 09:00N 50°48' W 001°24'612.0 010 / 121016.0 8.7 8.719.0
2018-Sep-23 08:30N 50°54' W 001°25'0 0.0
2018-Sep-23 08:03N 50°54' W 001°25'0 0.0
2018-Sep-23 08:00N 50°54' W 001°25'0 0.0
2018-Sep-23 07:30N 50°54' W 001°25'0 0.0
2018-Sep-23 07:02N 50°54' W 001°25'0 0.0
2018-Sep-23 06:59N 50°54' W 001°25'0 0.0
2018-Sep-23 06:28N 50°54' W 001°25'0 0.0
2018-Sep-23 06:02N 50°54' W 001°25'0 0.0
2018-Sep-23 06:01N 50°54' W 001°25'0 0.0
2018-Sep-23 05:30N 50°54' W 001°25'0 0.0
2018-Sep-23 05:03N 50°54' W 001°25'0 0.0
2018-Sep-23 05:00N 50°54' W 001°25'0 0.0
2018-Sep-23 04:30N 50°54' W 001°25'1 2.4
2018-Sep-23 04:03N 50°53' W 001°24'0 6.3
2018-Sep-23 04:00N 50°53' W 001°24'5 9.6
2018-Sep-23 03:30N 50°49' W 001°18'3 7.3
2018-Sep-23 03:04N 50°46' W 001°16'115.5
2018-Sep-23 03:01N 50°46' W 001°15'816.0
2018-Sep-23 02:30N 50°44' W 001°03'612.3
2018-Sep-23 02:04N 50°39' W 000°59'114.2
2018-Sep-23 02:00N 50°38' W 000°60'4 7.9
2018-Sep-23 01:30N 50°34' W 000°60'714.8
2018-Sep-23 01:03N 50°28' W 001°04'114.8
2018-Sep-23 01:00N 50°27' W 001°04'5514.6
2018-Sep-22 21:13N 49°58' W 002°17'214.9
2018-Sep-22 21:03N 49°57' W 002°21'415.1
2018-Sep-22 20:48N 49°56' W 002°26'515.1
2018-Sep-22 20:29N 49°55' W 002°34'615.1
2018-Sep-22 20:03N 49°53' W 002°43'115.0
2018-Sep-22 20:00N 49°53' W 002°45'815.1
2018-Sep-22 19:29N 49°50' W 002°56'715.0
2018-Sep-22 19:03N 49°47' W 003°05'115.0
2018-Sep-22 19:00N 49°47' W 003°06'714.9
2018-Sep-22 18:30N 49°42' W 003°14'8017.8
2018-Sep-22 14:01N 49°02' W 005°00'119.0
2018-Sep-22 13:58N 49°02' W 005°01'918.6
2018-Sep-22 13:30N 48°57' W 005°13'818.4
2018-Sep-22 13:03N 48°53' W 005°23'118.4
2018-Sep-22 13:01N 48°52' W 005°24'1018.2
2018-Sep-22 12:29N 48°46' W 005°36'17218.2
2018-Sep-22 03:00N 46°12' W 007°30'6716.7 160 / 231023.027.0 23.0
2018-Sep-21 23:00N 45°12' W 008°12'32716.0 140 / 221024.027.0 25.0
2018-Sep-21 02:34N 39°53' W 009°47'516.4
2018-Sep-21 02:18N 39°48' W 009°47'416.5
2018-Sep-21 02:01N 39°44' W 009°47'016.3
2018-Sep-21 02:00N 39°44' W 009°47'4260.5
2018-Sep-21 02:00N 39°42' W 009°42'915.4 320 / 13 20.1 20.0
2018-Sep-21 01:24N 39°34' W 009°47'616.4
2018-Sep-21 01:03N 39°28' W 009°47'116.0
2018-Sep-21 01:00N 39°27' W 009°47'816.6
2018-Sep-21 00:30N 39°19' W 009°47'816.8
2018-Sep-21 00:03N 39°11' W 009°46'116.2
2018-Sep-21 00:00N 39°11' W 009°46'816.3
2018-Sep-20 23:30N 39°02' W 009°45'716.3
2018-Sep-20 23:03N 38°55' W 009°45'116.4
2018-Sep-20 23:00N 38°54' W 009°45'815.8
2018-Sep-20 22:30N 38°47' W 009°43'715.8
2018-Sep-20 22:03N 38°39' W 009°42'116.1
2018-Sep-20 22:00N 38°39' W 009°41'816.5
2018-Sep-20 21:30N 38°37' W 009°31'715.6
2018-Sep-20 21:03N 38°38' W 009°22'113.6
2018-Sep-20 21:00N 38°38' W 009°21'713.2
2018-Sep-20 20:31N 38°41' W 009°14'4 9.7
2018-Sep-20 20:04N 38°42' W 009°08'110.2
2018-Sep-20 20:00N 38°42' W 009°08'1 1.1
2018-Sep-20 19:30N 38°43' W 009°07'0 0.0
2018-Sep-20 19:02N 38°43' W 009°07'0 0.0
2018-Sep-20 18:59N 38°43' W 009°07'0 0.0
2018-Sep-20 18:29N 38°43' W 009°07'0 0.0
2018-Sep-20 18:01N 38°43' W 009°07'0 0.0
2018-Sep-20 17:55N 38°43' W 009°07'0 0.0
2018-Sep-20 17:28N 38°43' W 009°07'0 0.0
2018-Sep-20 17:00N 38°43' W 009°07'0 0.0
2018-Sep-20 16:30N 38°43' W 009°07'0 0.0
2018-Sep-20 16:03N 38°43' W 009°07'0 0.0
2018-Sep-20 16:00N 38°43' W 009°07'0 0.0
2018-Sep-20 15:30N 38°43' W 009°07'0 0.0
2018-Sep-20 15:03N 38°43' W 009°07'0 0.0
2018-Sep-20 14:58N 38°43' W 009°07'0 0.0
2018-Sep-20 14:30N 38°43' W 009°07'0 0.0
2018-Sep-20 13:59N 38°43' W 009°07'0 0.0
2018-Sep-20 13:30N 38°43' W 009°07'0 0.0
2018-Sep-20 13:02N 38°43' W 009°07'0 0.0
2018-Sep-20 12:59N 38°43' W 009°07'0 0.0
2018-Sep-20 12:29N 38°43' W 009°07'0 0.0
2018-Sep-20 11:58N 38°43' W 009°07'0 0.0
2018-Sep-20 11:30N 38°43' W 009°07'0 0.5
2018-Sep-20 11:03N 38°43' W 009°07'0 3.5
2018-Sep-20 11:01N 38°42' W 009°07'510.2
2018-Sep-20 10:30N 38°41' W 009°14'714.5
2018-Sep-20 10:03N 38°38' W 009°21'114.6
2018-Sep-20 10:00N 38°38' W 009°22'815.8
2018-Sep-20 09:30N 38°30' W 009°25'816.7
2018-Sep-20 09:03N 38°23' W 009°24'116.3
2018-Sep-20 09:00N 38°22' W 009°24'816.6
2018-Sep-20 08:30N 38°14' W 009°24'817.1
2018-Sep-20 08:03N 38°06' W 009°24'117.1
2018-Sep-20 08:00N 38°05' W 009°24'917.2
2018-Sep-20 07:30N 37°56' W 009°23'817.3
2018-Sep-20 07:03N 37°49' W 009°23'117.6
2018-Sep-20 07:00N 37°48' W 009°23'917.7
2018-Sep-20 06:30N 37°39' W 009°23'817.1
2018-Sep-20 06:03N 37°31' W 009°22'117.0
2018-Sep-20 06:00N 37°30' W 009°22'816.9
2018-Sep-20 05:30N 37°22' W 009°22'716.6
2018-Sep-20 05:03N 37°14' W 009°21'116.5
2018-Sep-20 05:00N 37°14' W 009°21'816.2
2018-Sep-20 04:30N 37°05' W 009°21'716.2
2018-Sep-20 04:03N 36°58' W 009°20'116.2
2018-Sep-20 04:00N 36°57' W 009°20'815.8
2018-Sep-20 03:30N 36°50' W 009°15'716.6
2018-Sep-20 03:03N 36°45' W 009°09'116.5
2018-Sep-20 03:00N 36°45' W 009°08'816.7
2018-Sep-20 02:30N 36°42' W 008°58'816.9
2018-Sep-20 02:03N 36°40' W 008°49'584.2
2018-Sep-20 02:00N 36°36' W 008°54'6468.6 330 / 14 19.5 21.2
2018-Sep-20 01:59N 36°39' W 008°47'817.0
2018-Sep-20 01:30N 36°37' W 008°38'817.1
2018-Sep-20 01:01N 36°34' W 008°28'017.1
2018-Sep-20 01:00N 36°34' W 008°28'1717.2
2018-Sep-20 00:01N 36°29' W 008°08'117.4
2018-Sep-19 23:59N 36°28' W 008°07'917.5
2018-Sep-19 23:29N 36°26' W 007°57'1217.6
2018-Sep-19 22:47N 36°22' W 007°42'10319.9
2018-Sep-19 17:36N 35°58' W 005°38'219.9
2018-Sep-19 17:30N 35°58' W 005°36'919.0
2018-Sep-19 17:03N 35°60' W 005°25'118.5
2018-Sep-19 17:00N 35°60' W 005°24'918.7
2018-Sep-19 16:30N 36°02' W 005°13'6418.1
2018-Sep-19 13:00N 36°06' W 003°54'14021.2 110 / 6 24.0 25.1
2018-Sep-19 06:24N 37°04' W 001°15'1221.2
2018-Sep-19 05:51N 37°12' W 001°04'921.3
2018-Sep-19 05:26N 37°17' W 000°56'821.4
2018-Sep-19 05:03N 37°23' W 000°49'221.4
2018-Sep-19 04:58N 37°25' W 000°47'1021.2
2018-Sep-19 04:28N 37°32' W 000°37'921.0
2018-Sep-19 04:03N 37°39' W 000°31'221.2
2018-Sep-19 03:57N 37°40' W 000°29'1121.9
2018-Sep-19 03:28N 37°49' W 000°22'921.7
2018-Sep-19 03:03N 37°57' W 000°15'121.4
2018-Sep-19 03:00N 37°58' W 000°15'20020.9
2018-Sep-18 17:25N 40°52' E 001°53'719.2
2018-Sep-18 17:03N 40°58' E 001°57'119.1
2018-Sep-18 17:00N 40°59' E 001°57'1019.4
2018-Sep-18 16:30N 41°08' E 002°03'919.9
2018-Sep-18 16:04N 41°15' E 002°09'118.4
2018-Sep-18 16:01N 41°16' E 002°10'510.0
2018-Sep-18 15:30N 41°21' E 002°10'1 1.8
2018-Sep-18 15:03N 41°22' E 002°11'0 0.0
2018-Sep-18 15:00N 41°22' E 002°11'0 0.0
2018-Sep-18 14:29N 41°22' E 002°11'510.5
2018-Sep-18 14:00N 41°18' E 002°06'5643.6 080 / 13 23.1 25.3
2018-Sep-18 13:59N 41°22' E 002°11'0 0.0
2018-Sep-18 13:29N 41°22' E 002°11'0 0.0
2018-Sep-18 13:02N 41°22' E 002°11'0 0.0
2018-Sep-18 12:59N 41°22' E 002°11'0 0.0
2018-Sep-18 12:28N 41°22' E 002°11'0 0.0
2018-Sep-18 12:01N 41°22' E 002°11'0 0.0
2018-Sep-18 11:58N 41°22' E 002°11'0 0.0
2018-Sep-18 11:28N 41°22' E 002°11'0 0.0
2018-Sep-18 11:01N 41°22' E 002°11'0 0.0
2018-Sep-18 10:58N 41°22' E 002°11'0 0.0
2018-Sep-18 10:25N 41°22' E 002°11'0 0.0
2018-Sep-18 10:01N 41°22' E 002°11'0 0.0
2018-Sep-18 09:58N 41°22' E 002°11'0 0.0
2018-Sep-18 09:28N 41°22' E 002°11'0 0.0
2018-Sep-18 09:01N 41°22' E 002°11'0 0.0
2018-Sep-18 08:58N 41°22' E 002°11'0 0.0
2018-Sep-18 08:28N 41°22' E 002°11'0 0.0
2018-Sep-18 07:58N 41°22' E 002°11'0 0.0
2018-Sep-18 07:28N 41°22' E 002°11'0 0.0
2018-Sep-18 07:03N 41°22' E 002°11'0 0.0
2018-Sep-18 06:57N 41°22' E 002°11'0 0.0
2018-Sep-18 06:30N 41°22' E 002°11'0 0.0
2018-Sep-18 05:57N 41°22' E 002°11'0 0.0
2018-Sep-18 05:30N 41°22' E 002°11'1 1.8
2018-Sep-18 05:04N 41°21' E 002°10'0 3.3
2018-Sep-18 05:01N 41°21' E 002°10'3 5.3
2018-Sep-18 04:30N 41°18' E 002°11'612.5
2018-Sep-18 04:03N 41°14' E 002°16'115.7
2018-Sep-18 04:00N 41°14' E 002°17'26219.6
2018-Sep-17 14:36N 41°45' E 008°04'720.8
2018-Sep-17 14:15N 41°46' E 008°14'1020.9
2018-Sep-17 13:48N 41°47' E 008°27'721.0
2018-Sep-17 13:29N 41°49' E 008°34'4 0.4
2018-Sep-17 04:43N 41°50' E 008°40'313.7
2018-Sep-17 04:31N 41°49' E 008°36'5910.6
2018-Sep-16 22:56N 41°31' E 009°52'1015.3
2018-Sep-16 22:16N 41°35' E 010°05'315.1
2018-Sep-16 22:03N 41°37' E 010°09'115.0
2018-Sep-16 22:00N 41°37' E 010°09'815.9
2018-Sep-16 21:29N 41°40' E 010°20'41 2.0
2018-Sep-16 01:08N 42°11' E 010°57'114.1
2018-Sep-16 01:03N 42°11' E 010°56'114.0
2018-Sep-16 01:00N 42°12' E 010°55'814.0
2018-Sep-16 00:26N 42°17' E 010°47'513.6
2018-Sep-16 00:03N 42°20' E 010°42'113.7
2018-Sep-16 00:00N 42°20' E 010°41'713.7
2018-Sep-15 23:30N 42°25' E 010°34'613.9
2018-Sep-15 23:03N 42°28' E 010°26'013.7
2018-Sep-15 23:00N 42°29' E 010°26'913.8
2018-Sep-15 22:23N 42°34' E 010°17'1013.8
2018-Sep-15 21:41N 42°40' E 010°06'313.7
2018-Sep-15 21:28N 42°42' E 010°03'512.6
2018-Sep-15 21:03N 42°47' E 010°01'114.2
2018-Sep-15 20:57N 42°48' E 010°01'613.8
2018-Sep-15 20:31N 42°54' E 010°02'614.1
2018-Sep-15 20:03N 43°00' E 010°03'113.9
2018-Sep-15 20:00N 43°01' E 010°03'5415.1
2018-Sep-15 20:00N 43°06' E 010°00'4 7.5 350 / 61019.0 24.024.027.0
2018-Sep-15 19:30N 43°08' E 010°04'613.8
2018-Sep-15 19:03N 43°14' E 010°06'113.7
2018-Sep-15 19:00N 43°15' E 010°06'713.8
2018-Sep-15 18:30N 43°21' E 010°07'614.1
2018-Sep-15 18:03N 43°28' E 010°09'112.8
2018-Sep-15 18:00N 43°28' E 010°09'612.2
2018-Sep-15 17:30N 43°32' E 010°16'2 4.2
2018-Sep-15 17:02N 43°33' E 010°18'0 0.0
2018-Sep-15 16:59N 43°33' E 010°18'0 0.0
2018-Sep-15 16:29N 43°33' E 010°18'0 0.0
2018-Sep-15 16:01N 43°33' E 010°18'0 0.0
2018-Sep-15 15:58N 43°33' E 010°18'0 0.0
2018-Sep-15 15:30N 43°33' E 010°18'0 0.0
2018-Sep-15 15:00N 43°33' E 010°18'0 0.0
2018-Sep-15 14:30N 43°33' E 010°18'0 0.0
2018-Sep-15 14:00N 43°33' E 010°18'0 0.0
2018-Sep-15 13:30N 43°33' E 010°18'0 0.0
2018-Sep-15 13:03N 43°33' E 010°18'0 0.0
2018-Sep-15 13:00N 43°33' E 010°18'0 0.0
2018-Sep-15 12:28N 43°33' E 010°18'0 0.0
2018-Sep-15 12:01N 43°33' E 010°18'0 0.0
2018-Sep-15 11:58N 43°33' E 010°18'0 0.0
2018-Sep-15 11:28N 43°33' E 010°18'0 0.0
2018-Sep-15 11:01N 43°33' E 010°18'0 0.0
2018-Sep-15 10:58N 43°33' E 010°18'0 0.0
2018-Sep-15 10:28N 43°33' E 010°18'0 0.0
2018-Sep-15 10:03N 43°33' E 010°18'0 0.0
2018-Sep-15 09:57N 43°33' E 010°18'0 0.0
2018-Sep-15 09:29N 43°33' E 010°18'0 0.0
2018-Sep-15 09:02N 43°33' E 010°18'0 0.0
2018-Sep-15 08:59N 43°33' E 010°18'0 0.0
2018-Sep-15 08:26N 43°33' E 010°18'0 0.0
2018-Sep-15 08:02N 43°33' E 010°18'0 0.0
2018-Sep-15 07:59N 43°33' E 010°18'0 0.0
2018-Sep-15 07:29N 43°33' E 010°18'0 0.0
2018-Sep-15 07:02N 43°33' E 010°18'89222445.4
2018-Sep-15 07:00N 43°30' W 010°12'89286748.3 070 / 71020.0 26.026.026.0
2018-Sep-15 06:59N 43°33' E 010°18'0 0.0
2018-Sep-15 06:29N 43°33' E 010°18'0 0.0
2018-Sep-15 06:02N 43°33' E 010°18'0 0.1
2018-Sep-15 05:59N 43°33' E 010°18'0 0.0
2018-Sep-15 05:29N 43°33' E 010°18'0 0.0
2018-Sep-15 05:01N 43°33' E 010°18'0 0.1
2018-Sep-15 04:58N 43°33' E 010°18'0 0.3
2018-Sep-15 04:30N 43°33' E 010°18'2 4.6
2018-Sep-15 04:03N 43°32' E 010°16'0 7.8
2018-Sep-15 04:00N 43°31' E 010°15'713.3
2018-Sep-15 03:30N 43°26' E 010°09'715.4
2018-Sep-15 03:03N 43°21' E 010°03'115.6
2018-Sep-15 03:00N 43°21' E 010°02'815.8
2018-Sep-15 02:30N 43°17' E 009°52'817.7
2018-Sep-15 02:03N 43°16' E 009°41'117.7
2018-Sep-15 02:00N 43°16' E 009°40'917.9
2018-Sep-15 01:30N 43°15' E 009°28'818.0
2018-Sep-15 01:03N 43°14' E 009°17'118.0
2018-Sep-15 01:00N 43°14' E 009°16'918.1
2018-Sep-15 00:30N 43°13' E 009°03'918.2
2018-Sep-15 00:01N 43°11' E 008°51'018.3
2018-Sep-15 00:00N 43°11' E 008°51'918.1
2018-Sep-14 23:29N 43°09' E 008°38'920.2
2018-Sep-14 23:03N 43°08' E 008°26'121.6
2018-Sep-14 23:00N 43°08' E 008°25'1121.4
2018-Sep-14 22:30N 43°07' E 008°10'921.1
2018-Sep-14 22:03N 43°05' E 007°58'120.7
2018-Sep-14 22:00N 43°05' E 007°56'1020.7
2018-Sep-14 21:30N 43°04' E 007°42'921.0
2018-Sep-14 21:03N 43°03' E 007°29'121.2
2018-Sep-14 21:00N 43°03' E 007°28'1021.0
2018-Sep-14 20:30N 43°01' E 007°14'921.0
2018-Sep-14 20:03N 43°00' E 007°01'120.8
2018-Sep-14 20:00N 42°60' E 006°59'7717.7
2018-Sep-14 20:00N 42°54' E 006°54'   300 / 201016.0 24.024.025.0
Track history (hours):
 
Tides and Currents Weather Stations Pressure Air Temp Water Temp Dewpoint Dewpoint Depression Visibility Wind Speed Wind Dir Waves Ship Positions

Celebrity Silhouette

Last reported at 2018-Sep-24 20:00 UTC. Time now 2018-Sep-24 21:18 UTC.
Position N 45°24' W 012°00'.

Length 319 m; draft 8.6 m.

Type: Passenger vessel. MMSI: 248939000.

Wind from 080 at 18 knots

Barometer 1035.0 mb
Air temperature 20.0 ° C
Dewpoint 20.0 ° C
Water temperature 19.5 ° C

Date/timePositionNaut miles runAvg speedWind from/ knotsBaromVisibWave heightAir tempDewpointWater temp
2018-Sep-24 20:00N 45°24' W 012°00'23621.4 080 / 181035.0 20.020.019.5
2018-Sep-24 09:00N 48°00' W 007°42'12621.0 090 / 181030.0 15.015.017.0
2018-Sep-24 03:00N 49°12' W 005°06'5919.5 010 / 151037.027.0
2018-Sep-23 23:58N 49°43' W 003°49'1022.7
2018-Sep-23 23:30N 49°49' W 003°36'1022.2
2018-Sep-23 23:03N 49°53' W 003°22'122.1
2018-Sep-23 23:00N 49°53' W 003°20'1122.2
2018-Sep-23 22:30N 49°57' W 003°04'1021.7
2018-Sep-23 22:03N 49°60' W 002°49'121.6
2018-Sep-23 22:00N 50°00' W 002°48'2727.1
2018-Sep-23 21:00N 50°06' W 002°06'522.4 360 / 271019.0 13.013.017.9
2018-Sep-23 20:45N 50°10' W 002°11'519.5
2018-Sep-23 20:30N 50°13' W 002°05'919.0
2018-Sep-23 20:04N 50°17' W 001°53'119.1
2018-Sep-23 20:00N 50°17' W 001°52'918.7
2018-Sep-23 19:30N 50°21' W 001°39'818.5
2018-Sep-23 19:03N 50°25' W 001°27'118.5
2018-Sep-23 19:00N 50°25' W 001°26'918.1
2018-Sep-23 18:30N 50°29' W 001°13'817.8
2018-Sep-23 18:03N 50°33' W 001°02'118.1
2018-Sep-23 18:00N 50°33' W 001°01'816.3
2018-Sep-23 17:30N 50°41' W 000°58'612.3
2018-Sep-23 17:04N 50°44' W 001°05'118.0
2018-Sep-23 17:00N 50°45' W 001°06'816.6
2018-Sep-23 16:30N 50°47' W 001°19'4 8.4
2018-Sep-23 16:04N 50°51' W 001°20'0 6.4
2018-Sep-23 16:01N 50°51' W 001°20'4 8.1
2018-Sep-23 15:31N 50°54' W 001°25'0 0.4
2018-Sep-23 15:01N 50°54' W 001°25'0 0.0
2018-Sep-23 14:55N 50°54' W 001°25'0 0.0
2018-Sep-23 14:25N 50°54' W 001°25'0 0.0
2018-Sep-23 13:28N 50°54' W 001°25'0 0.0
2018-Sep-23 13:01N 50°54' W 001°25'0 0.0
2018-Sep-23 12:58N 50°54' W 001°25'0 0.0
2018-Sep-23 12:29N 50°54' W 001°25'0 0.0
2018-Sep-23 12:03N 50°54' W 001°25'0 0.0
2018-Sep-23 12:00N 50°54' W 001°25'0 0.0
2018-Sep-23 11:30N 50°54' W 001°25'0 0.0
2018-Sep-23 11:03N 50°54' W 001°25'0 0.0
2018-Sep-23 11:00N 50°54' W 001°25'0 0.0
2018-Sep-23 10:30N 50°54' W 001°25'0 0.0
2018-Sep-23 10:03N 50°54' W 001°25'0 0.0
2018-Sep-23 09:54N 50°54' W 001°25'0 0.0
2018-Sep-23 09:30N 50°54' W 001°25'0 0.0
2018-Sep-23 09:03N 50°54' W 001°25'0 0.0
2018-Sep-23 09:00N 50°54' W 001°25'61654.0
2018-Sep-23 09:00N 50°48' W 001°24'612.0 010 / 121016.0 8.7 8.719.0
2018-Sep-23 08:30N 50°54' W 001°25'0 0.0
2018-Sep-23 08:03N 50°54' W 001°25'0 0.0
2018-Sep-23 08:00N 50°54' W 001°25'0 0.0
2018-Sep-23 07:30N 50°54' W 001°25'0 0.0
2018-Sep-23 07:02N 50°54' W 001°25'0 0.0
2018-Sep-23 06:59N 50°54' W 001°25'0 0.0
2018-Sep-23 06:28N 50°54' W 001°25'0 0.0
2018-Sep-23 06:02N 50°54' W 001°25'0 0.0
2018-Sep-23 06:01N 50°54' W 001°25'0 0.0
2018-Sep-23 05:30N 50°54' W 001°25'0 0.0
2018-Sep-23 05:03N 50°54' W 001°25'0 0.0
2018-Sep-23 05:00N 50°54' W 001°25'0 0.0
2018-Sep-23 04:30N 50°54' W 001°25'1 2.4
2018-Sep-23 04:03N 50°53' W 001°24'0 6.3
2018-Sep-23 04:00N 50°53' W 001°24'5 9.6
2018-Sep-23 03:30N 50°49' W 001°18'3 7.3
2018-Sep-23 03:04N 50°46' W 001°16'115.5
2018-Sep-23 03:01N 50°46' W 001°15'816.0
2018-Sep-23 02:30N 50°44' W 001°03'612.3
2018-Sep-23 02:04N 50°39' W 000°59'114.2
2018-Sep-23 02:00N 50°38' W 000°60'4 7.9
2018-Sep-23 01:30N 50°34' W 000°60'714.8
2018-Sep-23 01:03N 50°28' W 001°04'114.8
2018-Sep-23 01:00N 50°27' W 001°04'5514.6
2018-Sep-22 21:13N 49°58' W 002°17'214.9
2018-Sep-22 21:03N 49°57' W 002°21'415.1
2018-Sep-22 20:48N 49°56' W 002°26'515.1
2018-Sep-22 20:29N 49°55' W 002°34'615.1
2018-Sep-22 20:03N 49°53' W 002°43'115.0
2018-Sep-22 20:00N 49°53' W 002°45'815.1
2018-Sep-22 19:29N 49°50' W 002°56'715.0
2018-Sep-22 19:03N 49°47' W 003°05'115.0
2018-Sep-22 19:00N 49°47' W 003°06'714.9
2018-Sep-22 18:30N 49°42' W 003°14'8017.8
2018-Sep-22 14:01N 49°02' W 005°00'119.0
2018-Sep-22 13:58N 49°02' W 005°01'918.6
2018-Sep-22 13:30N 48°57' W 005°13'818.4
2018-Sep-22 13:03N 48°53' W 005°23'118.4
2018-Sep-22 13:01N 48°52' W 005°24'1018.2
2018-Sep-22 12:29N 48°46' W 005°36'17218.2
2018-Sep-22 03:00N 46°12' W 007°30'6716.7 160 / 231023.027.0 23.0
2018-Sep-21 23:00N 45°12' W 008°12'32716.0 140 / 221024.027.0 25.0
2018-Sep-21 02:34N 39°53' W 009°47'516.4
2018-Sep-21 02:18N 39°48' W 009°47'416.5
2018-Sep-21 02:01N 39°44' W 009°47'016.3
2018-Sep-21 02:00N 39°44' W 009°47'4260.5
2018-Sep-21 02:00N 39°42' W 009°42'915.4 320 / 13 20.1 20.0
2018-Sep-21 01:24N 39°34' W 009°47'616.4
2018-Sep-21 01:03N 39°28' W 009°47'116.0
2018-Sep-21 01:00N 39°27' W 009°47'816.6
2018-Sep-21 00:30N 39°19' W 009°47'816.8
2018-Sep-21 00:03N 39°11' W 009°46'116.2
2018-Sep-21 00:00N 39°11' W 009°46'816.3
2018-Sep-20 23:30N 39°02' W 009°45'716.3
2018-Sep-20 23:03N 38°55' W 009°45'116.4
2018-Sep-20 23:00N 38°54' W 009°45'815.8
2018-Sep-20 22:30N 38°47' W 009°43'715.8
2018-Sep-20 22:03N 38°39' W 009°42'116.1
2018-Sep-20 22:00N 38°39' W 009°41'816.5
2018-Sep-20 21:30N 38°37' W 009°31'715.6
2018-Sep-20 21:03N 38°38' W 009°22'113.6
2018-Sep-20 21:00N 38°38' W 009°21'713.2
2018-Sep-20 20:31N 38°41' W 009°14'4 9.7
2018-Sep-20 20:04N 38°42' W 009°08'110.2
2018-Sep-20 20:00N 38°42' W 009°08'1 1.1
2018-Sep-20 19:30N 38°43' W 009°07'0 0.0
2018-Sep-20 19:02N 38°43' W 009°07'0 0.0
2018-Sep-20 18:59N 38°43' W 009°07'0 0.0
2018-Sep-20 18:29N 38°43' W 009°07'0 0.0
2018-Sep-20 18:01N 38°43' W 009°07'0 0.0
2018-Sep-20 17:55N 38°43' W 009°07'0 0.0
2018-Sep-20 17:28N 38°43' W 009°07'0 0.0
2018-Sep-20 17:00N 38°43' W 009°07'0 0.0
2018-Sep-20 16:30N 38°43' W 009°07'0 0.0
2018-Sep-20 16:03N 38°43' W 009°07'0 0.0
2018-Sep-20 16:00N 38°43' W 009°07'0 0.0
2018-Sep-20 15:30N 38°43' W 009°07'0 0.0
2018-Sep-20 15:03N 38°43' W 009°07'0 0.0
2018-Sep-20 14:58N 38°43' W 009°07'0 0.0
2018-Sep-20 14:30N 38°43' W 009°07'0 0.0
2018-Sep-20 13:59N 38°43' W 009°07'0 0.0
2018-Sep-20 13:30N 38°43' W 009°07'0 0.0
2018-Sep-20 13:02N 38°43' W 009°07'0 0.0
2018-Sep-20 12:59N 38°43' W 009°07'0 0.0
2018-Sep-20 12:29N 38°43' W 009°07'0 0.0
2018-Sep-20 11:58N 38°43' W 009°07'0 0.0
2018-Sep-20 11:30N 38°43' W 009°07'0 0.5
2018-Sep-20 11:03N 38°43' W 009°07'0 3.5
2018-Sep-20 11:01N 38°42' W 009°07'510.2
2018-Sep-20 10:30N 38°41' W 009°14'714.5
2018-Sep-20 10:03N 38°38' W 009°21'114.6
2018-Sep-20 10:00N 38°38' W 009°22'815.8
2018-Sep-20 09:30N 38°30' W 009°25'816.7
2018-Sep-20 09:03N 38°23' W 009°24'116.3
2018-Sep-20 09:00N 38°22' W 009°24'816.6
2018-Sep-20 08:30N 38°14' W 009°24'817.1
2018-Sep-20 08:03N 38°06' W 009°24'117.1
2018-Sep-20 08:00N 38°05' W 009°24'917.2
2018-Sep-20 07:30N 37°56' W 009°23'817.3
2018-Sep-20 07:03N 37°49' W 009°23'117.6
2018-Sep-20 07:00N 37°48' W 009°23'917.7
2018-Sep-20 06:30N 37°39' W 009°23'817.1
2018-Sep-20 06:03N 37°31' W 009°22'117.0
2018-Sep-20 06:00N 37°30' W 009°22'816.9
2018-Sep-20 05:30N 37°22' W 009°22'716.6
2018-Sep-20 05:03N 37°14' W 009°21'116.5
2018-Sep-20 05:00N 37°14' W 009°21'816.2
2018-Sep-20 04:30N 37°05' W 009°21'716.2
2018-Sep-20 04:03N 36°58' W 009°20'116.2
2018-Sep-20 04:00N 36°57' W 009°20'815.8
2018-Sep-20 03:30N 36°50' W 009°15'716.6
2018-Sep-20 03:03N 36°45' W 009°09'116.5
2018-Sep-20 03:00N 36°45' W 009°08'816.7
2018-Sep-20 02:30N 36°42' W 008°58'816.9
2018-Sep-20 02:03N 36°40' W 008°49'584.2
2018-Sep-20 02:00N 36°36' W 008°54'6468.6 330 / 14 19.5 21.2
2018-Sep-20 01:59N 36°39' W 008°47'817.0
2018-Sep-20 01:30N 36°37' W 008°38'817.1
2018-Sep-20 01:01N 36°34' W 008°28'017.1
2018-Sep-20 01:00N 36°34' W 008°28'1717.2
2018-Sep-20 00:01N 36°29' W 008°08'117.4
2018-Sep-19 23:59N 36°28' W 008°07'917.5
2018-Sep-19 23:29N 36°26' W 007°57'1217.6
2018-Sep-19 22:47N 36°22' W 007°42'10319.9
2018-Sep-19 17:36N 35°58' W 005°38'219.9
2018-Sep-19 17:30N 35°58' W 005°36'919.0
2018-Sep-19 17:03N 35°60' W 005°25'118.5
2018-Sep-19 17:00N 35°60' W 005°24'918.7
2018-Sep-19 16:30N 36°02' W 005°13'6418.1
2018-Sep-19 13:00N 36°06' W 003°54'14021.2 110 / 6 24.0 25.1
2018-Sep-19 06:24N 37°04' W 001°15'1221.2
2018-Sep-19 05:51N 37°12' W 001°04'921.3
2018-Sep-19 05:26N 37°17' W 000°56'821.4
2018-Sep-19 05:03N 37°23' W 000°49'221.4
2018-Sep-19 04:58N 37°25' W 000°47'1021.2
2018-Sep-19 04:28N 37°32' W 000°37'921.0
2018-Sep-19 04:03N 37°39' W 000°31'221.2
2018-Sep-19 03:57N 37°40' W 000°29'1121.9
2018-Sep-19 03:28N 37°49' W 000°22'921.7
2018-Sep-19 03:03N 37°57' W 000°15'121.4
2018-Sep-19 03:00N 37°58' W 000°15'20020.9
2018-Sep-18 17:25N 40°52' E 001°53'719.2
2018-Sep-18 17:03N 40°58' E 001°57'119.1
2018-Sep-18 17:00N 40°59' E 001°57'1019.4
2018-Sep-18 16:30N 41°08' E 002°03'919.9
2018-Sep-18 16:04N 41°15' E 002°09'118.4
2018-Sep-18 16:01N 41°16' E 002°10'510.0
2018-Sep-18 15:30N 41°21' E 002°10'1 1.8
2018-Sep-18 15:03N 41°22' E 002°11'0 0.0
2018-Sep-18 15:00N 41°22' E 002°11'0 0.0
2018-Sep-18 14:29N 41°22' E 002°11'510.5
2018-Sep-18 14:00N 41°18' E 002°06'5643.6 080 / 13 23.1 25.3
2018-Sep-18 13:59N 41°22' E 002°11'0 0.0
2018-Sep-18 13:29N 41°22' E 002°11'0 0.0
2018-Sep-18 13:02N 41°22' E 002°11'0 0.0
2018-Sep-18 12:59N 41°22' E 002°11'0 0.0
2018-Sep-18 12:28N 41°22' E 002°11'0 0.0
2018-Sep-18 12:01N 41°22' E 002°11'0 0.0
2018-Sep-18 11:58N 41°22' E 002°11'0 0.0
2018-Sep-18 11:28N 41°22' E 002°11'0 0.0
2018-Sep-18 11:01N 41°22' E 002°11'0 0.0
2018-Sep-18 10:58N 41°22' E 002°11'0 0.0
2018-Sep-18 10:25N 41°22' E 002°11'0 0.0
2018-Sep-18 10:01N 41°22' E 002°11'0 0.0
2018-Sep-18 09:58N 41°22' E 002°11'0 0.0
2018-Sep-18 09:28N 41°22' E 002°11'0 0.0
2018-Sep-18 09:01N 41°22' E 002°11'0 0.0
2018-Sep-18 08:58N 41°22' E 002°11'0 0.0
2018-Sep-18 08:28N 41°22' E 002°11'0 0.0
2018-Sep-18 07:58N 41°22' E 002°11'0 0.0
2018-Sep-18 07:28N 41°22' E 002°11'0 0.0
2018-Sep-18 07:03N 41°22' E 002°11'0 0.0
2018-Sep-18 06:57N 41°22' E 002°11'0 0.0
2018-Sep-18 06:30N 41°22' E 002°11'0 0.0
2018-Sep-18 05:57N 41°22' E 002°11'0 0.0
2018-Sep-18 05:30N 41°22' E 002°11'1 1.8
2018-Sep-18 05:04N 41°21' E 002°10'0 3.3
2018-Sep-18 05:01N 41°21' E 002°10'3 5.3
2018-Sep-18 04:30N 41°18' E 002°11'612.5
2018-Sep-18 04:03N 41°14' E 002°16'115.7
2018-Sep-18 04:00N 41°14' E 002°17'26219.6
2018-Sep-17 14:36N 41°45' E 008°04'720.8
2018-Sep-17 14:15N 41°46' E 008°14'1020.9
2018-Sep-17 13:48N 41°47' E 008°27'721.0
2018-Sep-17 13:29N 41°49' E 008°34'4 0.4
2018-Sep-17 04:43N 41°50' E 008°40'313.7
2018-Sep-17 04:31N 41°49' E 008°36'5910.6
2018-Sep-16 22:56N 41°31' E 009°52'1015.3
2018-Sep-16 22:16N 41°35' E 010°05'315.1
2018-Sep-16 22:03N 41°37' E 010°09'115.0
2018-Sep-16 22:00N 41°37' E 010°09'815.9
2018-Sep-16 21:29N 41°40' E 010°20'41 2.0
2018-Sep-16 01:08N 42°11' E 010°57'114.1
2018-Sep-16 01:03N 42°11' E 010°56'114.0
2018-Sep-16 01:00N 42°12' E 010°55'814.0
2018-Sep-16 00:26N 42°17' E 010°47'513.6
2018-Sep-16 00:03N 42°20' E 010°42'113.7
2018-Sep-16 00:00N 42°20' E 010°41'713.7
2018-Sep-15 23:30N 42°25' E 010°34'613.9
2018-Sep-15 23:03N 42°28' E 010°26'013.7
2018-Sep-15 23:00N 42°29' E 010°26'913.8
2018-Sep-15 22:23N 42°34' E 010°17'1013.8
2018-Sep-15 21:41N 42°40' E 010°06'313.7
2018-Sep-15 21:28N 42°42' E 010°03'512.6
2018-Sep-15 21:03N 42°47' E 010°01'114.2
2018-Sep-15 20:57N 42°48' E 010°01'613.8
2018-Sep-15 20:31N 42°54' E 010°02'614.1
2018-Sep-15 20:03N 43°00' E 010°03'113.9
2018-Sep-15 20:00N 43°01' E 010°03'5415.1
2018-Sep-15 20:00N 43°06' E 010°00'4 7.5 350 / 61019.0 24.024.027.0
2018-Sep-15 19:30N 43°08' E 010°04'613.8
2018-Sep-15 19:03N 43°14' E 010°06'113.7
2018-Sep-15 19:00N 43°15' E 010°06'713.8
2018-Sep-15 18:30N 43°21' E 010°07'614.1
2018-Sep-15 18:03N 43°28' E 010°09'112.8
2018-Sep-15 18:00N 43°28' E 010°09'612.2
2018-Sep-15 17:30N 43°32' E 010°16'2 4.2
2018-Sep-15 17:02N 43°33' E 010°18'0 0.0
2018-Sep-15 16:59N 43°33' E 010°18'0 0.0
2018-Sep-15 16:29N 43°33' E 010°18'0 0.0
2018-Sep-15 16:01N 43°33' E 010°18'0 0.0
2018-Sep-15 15:58N 43°33' E 010°18'0 0.0
2018-Sep-15 15:30N 43°33' E 010°18'0 0.0
2018-Sep-15 15:00N 43°33' E 010°18'0 0.0
2018-Sep-15 14:30N 43°33' E 010°18'0 0.0
2018-Sep-15 14:00N 43°33' E 010°18'0 0.0
2018-Sep-15 13:30N 43°33' E 010°18'0 0.0
2018-Sep-15 13:03N 43°33' E 010°18'0 0.0
2018-Sep-15 13:00N 43°33' E 010°18'0 0.0
2018-Sep-15 12:28N 43°33' E 010°18'0 0.0
2018-Sep-15 12:01N 43°33' E 010°18'0 0.0
2018-Sep-15 11:58N 43°33' E 010°18'0 0.0
2018-Sep-15 11:28N 43°33' E 010°18'0 0.0
2018-Sep-15 11:01N 43°33' E 010°18'0 0.0
2018-Sep-15 10:58N 43°33' E 010°18'0 0.0
2018-Sep-15 10:28N 43°33' E 010°18'0 0.0
2018-Sep-15 10:03N 43°33' E 010°18'0 0.0
2018-Sep-15 09:57N 43°33' E 010°18'0 0.0
2018-Sep-15 09:29N 43°33' E 010°18'0 0.0
2018-Sep-15 09:02N 43°33' E 010°18'0 0.0
2018-Sep-15 08:59N 43°33' E 010°18'0 0.0
2018-Sep-15 08:26N 43°33' E 010°18'0 0.0
2018-Sep-15 08:02N 43°33' E 010°18'0 0.0
2018-Sep-15 07:59N 43°33' E 010°18'0 0.0
2018-Sep-15 07:29N 43°33' E 010°18'0 0.0
2018-Sep-15 07:02N 43°33' E 010°18'89222445.4
2018-Sep-15 07:00N 43°30' W 010°12'89286748.3 070 / 71020.0 26.026.026.0
2018-Sep-15 06:59N 43°33' E 010°18'0 0.0
2018-Sep-15 06:29N 43°33' E 010°18'0 0.0
2018-Sep-15 06:02N 43°33' E 010°18'0 0.1
2018-Sep-15 05:59N 43°33' E 010°18'0 0.0
2018-Sep-15 05:29N 43°33' E 010°18'0 0.0
2018-Sep-15 05:01N 43°33' E 010°18'0 0.1
2018-Sep-15 04:58N 43°33' E 010°18'0 0.3
2018-Sep-15 04:30N 43°33' E 010°18'2 4.6
2018-Sep-15 04:03N 43°32' E 010°16'0 7.8
2018-Sep-15 04:00N 43°31' E 010°15'713.3
2018-Sep-15 03:30N 43°26' E 010°09'715.4
2018-Sep-15 03:03N 43°21' E 010°03'115.6
2018-Sep-15 03:00N 43°21' E 010°02'815.8
2018-Sep-15 02:30N 43°17' E 009°52'817.7
2018-Sep-15 02:03N 43°16' E 009°41'117.7
2018-Sep-15 02:00N 43°16' E 009°40'917.9
2018-Sep-15 01:30N 43°15' E 009°28'818.0
2018-Sep-15 01:03N 43°14' E 009°17'118.0
2018-Sep-15 01:00N 43°14' E 009°16'918.1
2018-Sep-15 00:30N 43°13' E 009°03'918.2
2018-Sep-15 00:01N 43°11' E 008°51'018.3
2018-Sep-15 00:00N 43°11' E 008°51'918.1
2018-Sep-14 23:29N 43°09' E 008°38'920.2
2018-Sep-14 23:03N 43°08' E 008°26'121.6
2018-Sep-14 23:00N 43°08' E 008°25'1121.4
2018-Sep-14 22:30N 43°07' E 008°10'921.1
2018-Sep-14 22:03N 43°05' E 007°58'120.7
2018-Sep-14 22:00N 43°05' E 007°56'1020.7
2018-Sep-14 21:30N 43°04' E 007°42'921.0
2018-Sep-14 21:03N 43°03' E 007°29'121.2
2018-Sep-14 21:00N 43°03' E 007°28'1021.0
2018-Sep-14 20:30N 43°01' E 007°14'921.0
2018-Sep-14 20:03N 43°00' E 007°01'120.8
2018-Sep-14 20:00N 42°60' E 006°59'7717.7
2018-Sep-14 20:00N 42°54' E 006°54'   300 / 201016.0 24.024.025.0

Dump ship's entire track history